Change the Weather History Date:

Thursday, March 6, 2014

  Actual Average (KDSM) Record (KDSM)
Temperature  
Mean Temperature 28 °F 35 °F  
Max Temperature 37 °F 44 °F 74 °F (2005)
Min Temperature 19 °F 26 °F -6 °F (1960)
Degree Days  
Heating Degree Days 37 30  
Month to date heating degree days 186  
Since 1 July heating degree days 5017  
Cooling Degree Days 0 0  
Month to date cooling degree days 0  
Year to date cooling degree days 0  
Moisture  
Dew Point 22 °F    
Average Humidity 81    
Maximum Humidity 93    
Minimum Humidity 70    
Precipitation  
Precipitation 0.00 in 0.07 in 0.95 in (1983)
Month to date precipitation 0.38  
Year to date precipitation 2.66  
Snow  
Snow 0.00 in 0.20 in 5.50 in (1948)
Month to date snowfall 1.2  
Since 1 July snowfall 29.5  
Snow Depth -    
Sea Level Pressure  
Sea Level Pressure 30.14 in    
Wind  
Wind Speed 10 mph (SSE)    
Max Wind Speed 15 mph    
Max Gust Speed 21 mph    
Visibility 9 miles    
Events      
T = Trace of Precipitation, MM = Missing Value Source: NWS Daily Summary

Daily Weather History Graph

Daily Weather History Graph

Search for Another Location

Airport or City:

Trip Planner

Search our weather history database for the weather conditions in past years. The results will help you decide how hot, cold, wet, or windy it might be!

Date:

Astronomy

Mar. 06, 2014 Rise Set
Actual Time 6:40 AM CST 6:10 PM CST
Civil Twilight 6:13 AM CST 6:38 PM CST
Nautical Twilight 5:41 AM CST 7:10 PM CST
Astronomical Twilight 5:08 AM CST 7:42 PM CST
Moon 9:44 AM CST (3/6) No Moon Set
Length of Visible Light 12h 25m
Length of Day
11h 29m
Waxing Crescent, 32% of the Moon is Illuminated
Mar 6
Waxing Crescent
Mar 8
First Quarter
Mar 16
Full
Mar 23
Last Quarter
Mar 30
New

Hourly Weather History & Observations

Time (CST) Temp. Windchill Dew Point Humidity Pressure Visibility Wind Dir Wind Speed Gust Speed Precip Events Conditions
12:15 AM 21.2 °F 10.1 °F 17.6 °F 86% 30.35 in 10.0 mi SE 10.4 mph - N/A   Overcast
12:35 AM 21.2 °F 9.5 °F 17.6 °F 86% 30.33 in 10.0 mi SE 11.5 mph - N/A   Overcast
12:55 AM 21.2 °F 8.9 °F 17.6 °F 86% 30.32 in 10.0 mi SE 12.7 mph - N/A   Overcast
1:15 AM 21.2 °F 10.1 °F 15.8 °F 80% 30.32 in 10.0 mi SE 10.4 mph - N/A   Overcast
1:35 AM 21.2 °F 10.9 °F 17.6 °F 86% 30.32 in 10.0 mi SE 9.2 mph - N/A   Overcast
1:55 AM 21.2 °F 12.6 °F 17.6 °F 86% 30.32 in 10.0 mi SE 6.9 mph - N/A   Overcast
2:15 AM 21.2 °F 14.9 °F 17.6 °F 86% 30.33 in 10.0 mi SE 4.6 mph - N/A   Overcast
2:35 AM 21.2 °F 11.7 °F 17.6 °F 86% 30.32 in 10.0 mi SE 8.1 mph - N/A   Overcast
2:55 AM 21.2 °F 10.9 °F 17.6 °F 86% 30.31 in 10.0 mi SE 9.2 mph - N/A   Overcast
3:15 AM 21.2 °F 13.6 °F 17.6 °F 86% 30.30 in 10.0 mi SE 5.8 mph 12.7 mph N/A   Overcast
3:35 AM 21.2 °F 11.7 °F 17.6 °F 86% 30.30 in 10.0 mi SE 8.1 mph - N/A   Overcast
3:55 AM 21.2 °F 10.9 °F 17.6 °F 86% 30.29 in 10.0 mi SE 9.2 mph - N/A   Overcast
4:15 AM 21.2 °F 10.1 °F 17.6 °F 86% 30.28 in 10.0 mi SE 10.4 mph - N/A   Overcast
4:35 AM 21.2 °F 10.9 °F 17.6 °F 86% 30.28 in 10.0 mi SE 9.2 mph - N/A   Overcast
4:55 AM 21.2 °F 11.7 °F 17.6 °F 86% 30.29 in 10.0 mi SE 8.1 mph - N/A   Overcast
5:15 AM 19.4 °F 9.5 °F 17.6 °F 93% 30.29 in 10.0 mi SE 8.1 mph - N/A   Overcast
5:35 AM 19.4 °F 8.6 °F 17.6 °F 93% 30.28 in 9.0 mi SE 9.2 mph - N/A   Overcast
5:55 AM 19.4 °F 7.9 °F 17.6 °F 93% 30.27 in 8.0 mi SE 10.4 mph - N/A   Overcast
6:15 AM 19.4 °F 8.6 °F 17.6 °F 93% 30.27 in 7.0 mi SE 9.2 mph - N/A   Overcast
6:35 AM 19.4 °F 10.4 °F 17.6 °F 93% 30.26 in 7.0 mi SE 6.9 mph - N/A   Overcast
6:55 AM 19.4 °F 8.6 °F 17.6 °F 93% 30.26 in 5.0 mi SE 9.2 mph - N/A   Overcast
7:15 AM 19.4 °F 11.5 °F 17.6 °F 93% 30.27 in 5.0 mi SE 5.8 mph - N/A   Overcast
7:35 AM 19.4 °F 8.6 °F 17.6 °F 93% 30.26 in 5.0 mi SE 9.2 mph - N/A   Overcast
7:55 AM 19.4 °F 8.6 °F 17.6 °F 93% 30.25 in 4.0 mi SE 9.2 mph - N/A   Overcast
8:15 AM 19.4 °F 7.9 °F 17.6 °F 93% 30.24 in 5.0 mi SE 10.4 mph - N/A   Overcast
8:35 AM 19.4 °F 8.6 °F 17.6 °F 93% 30.24 in 6.0 mi SE 9.2 mph - N/A   Overcast
8:55 AM 21.2 °F 10.1 °F 17.6 °F 86% 30.24 in 6.0 mi SE 10.4 mph - N/A   Overcast
9:15 AM 21.2 °F 10.9 °F 17.6 °F 86% 30.24 in 7.0 mi SE 9.2 mph - N/A   Overcast
9:35 AM 21.2 °F 10.9 °F 17.6 °F 86% 30.24 in 7.0 mi SE 9.2 mph - N/A   Mostly Cloudy
9:55 AM 21.2 °F 10.1 °F 17.6 °F 86% 30.22 in 8.0 mi SE 10.4 mph - N/A   Overcast
10:15 AM 23.0 °F 12.4 °F 19.4 °F 86% 30.23 in 8.0 mi SSE 10.4 mph - N/A   Overcast
10:35 AM 24.8 °F 13.4 °F 19.4 °F 80% 30.21 in 9.0 mi South 12.7 mph - N/A   Overcast
10:55 AM 24.8 °F 14.0 °F 19.4 °F 80% 30.21 in 8.0 mi South 11.5 mph - N/A   Overcast
11:15 AM 24.8 °F 14.6 °F 19.4 °F 80% 30.20 in 8.0 mi SSE 10.4 mph - N/A   Overcast
11:35 AM 26.6 °F 16.8 °F 21.2 °F 80% 30.19 in 8.0 mi SSE 10.4 mph - N/A   Overcast
11:55 AM 28.4 °F 18.0 °F 21.2 °F 74% 30.18 in 9.0 mi SSE 12.7 mph - N/A   Overcast
12:15 PM 28.4 °F 19.1 °F 23.0 °F 80% 30.17 in 9.0 mi SSE 10.4 mph 16.1 mph N/A   Mostly Cloudy
12:35 PM 30.2 °F 20.2 °F 23.0 °F 75% 30.16 in 9.0 mi SSE 12.7 mph - N/A   Partly Cloudy
12:55 PM 30.2 °F 20.2 °F 23.0 °F 75% 30.14 in 8.0 mi SSE 12.7 mph - N/A   Clear
1:10 PM 32.0 °F 23.6 °F 24.8 °F 75% 30.12 in 9.0 mi SE 10.4 mph - N/A   Clear
1:35 PM 32.0 °F 23.6 °F 24.8 °F 75% 30.11 in 9.0 mi SSE 10.4 mph - N/A   Clear
1:55 PM 33.8 °F 24.8 °F 24.8 °F 70% 30.10 in 9.0 mi SSE 12.7 mph - N/A   Clear
2:15 PM 33.8 °F 23.9 °F 26.6 °F 75% 30.09 in 9.0 mi South 15.0 mph - N/A   Clear
2:35 PM 35.6 °F 26.6 °F 26.6 °F 70% 30.08 in 9.0 mi South 13.8 mph - N/A   Clear
2:55 PM 35.6 °F 27.1 °F 26.6 °F 70% 30.07 in 9.0 mi South 12.7 mph - N/A   Clear
3:15 PM 35.6 °F 26.6 °F 26.6 °F 70% 30.05 in 9.0 mi SSE 13.8 mph - N/A   Clear
3:35 PM 35.6 °F 27.1 °F 28.4 °F 75% 30.04 in 9.0 mi SSE 12.7 mph - N/A   Clear
3:55 PM 35.6 °F 26.2 °F 26.6 °F 70% 30.03 in 9.0 mi SSE 15.0 mph - N/A   Clear
4:15 PM 37.4 °F 29.3 °F 28.4 °F 70% 30.01 in 9.0 mi South 12.7 mph 19.6 mph N/A   Clear
4:35 PM 37.4 °F 28.5 °F 28.4 °F 70% 30.00 in 9.0 mi SSE 15.0 mph 20.7 mph N/A   Clear
4:55 PM 35.6 °F 26.2 °F 26.6 °F 70% 30.00 in 9.0 mi SSE 15.0 mph - N/A   Clear
5:15 PM 35.6 °F 28.0 °F 26.6 °F 70% 29.99 in 9.0 mi SSE 10.4 mph 17.3 mph N/A   Clear
5:35 PM 35.6 °F 26.2 °F 26.6 °F 70% 29.99 in 9.0 mi South 15.0 mph - N/A   Clear
5:50 PM 35.6 °F 26.6 °F 26.6 °F 70% 29.99 in 9.0 mi South 13.8 mph - N/A   Clear
6:15 PM 33.8 °F 25.8 °F 26.6 °F 75% 29.99 in 8.0 mi South 10.4 mph - N/A   Clear
6:35 PM 33.8 °F 27.0 °F 26.6 °F 75% 29.99 in 9.0 mi SSE 8.1 mph - N/A   Clear
6:55 PM 33.8 °F 27.0 °F 26.6 °F 75% 29.98 in 9.0 mi SSE 8.1 mph - N/A   Clear
7:15 PM 33.8 °F 26.4 °F 26.6 °F 75% 29.97 in 8.0 mi SSE 9.2 mph - N/A   Clear
7:35 PM 32.0 °F 23.6 °F 26.6 °F 80% 29.96 in 9.0 mi SSE 10.4 mph - N/A   Clear
7:55 PM 33.8 °F 26.4 °F 26.6 °F 75% 29.96 in 9.0 mi SSE 9.2 mph - N/A   Clear
8:15 PM 33.8 °F 25.8 °F 26.6 °F 75% 29.95 in 10.0 mi SSE 10.4 mph - N/A   Clear
8:35 PM 33.8 °F 25.3 °F 28.4 °F 81% 29.94 in 9.0 mi South 11.5 mph - N/A   Clear
8:55 PM 33.8 °F 26.4 °F 28.4 °F 81% 29.95 in 9.0 mi South 9.2 mph 17.3 mph N/A   Scattered Clouds
9:15 PM 33.8 °F 27.0 °F 28.4 °F 81% 29.94 in 9.0 mi SSE 8.1 mph 15.0 mph N/A   Scattered Clouds
9:35 PM 33.8 °F 25.3 °F 28.4 °F 81% 29.94 in 10.0 mi SSE 11.5 mph - N/A   Partly Cloudy
9:55 PM 33.8 °F 25.8 °F 28.4 °F 81% 29.94 in 9.0 mi South 10.4 mph - N/A   Clear
10:15 PM 33.8 °F 26.4 °F 28.4 °F 81% 29.94 in 9.0 mi SSE 9.2 mph - N/A   Clear
10:35 PM 33.8 °F 25.8 °F 28.4 °F 81% 29.93 in 9.0 mi South 10.4 mph - N/A   Clear
10:55 PM 33.8 °F 25.8 °F 28.4 °F 81% 29.92 in 8.0 mi SSE 10.4 mph - N/A   Clear
11:15 PM 33.8 °F 25.3 °F 28.4 °F 81% 29.92 in 8.0 mi South 11.5 mph - N/A   Clear
11:35 PM 33.8 °F 27.0 °F 28.4 °F 81% 29.92 in 8.0 mi South 8.1 mph - N/A   Clear
11:55 PM 32.0 °F 25.6 °F 28.4 °F 87% 29.92 in 7.0 mi SSE 6.9 mph - N/A   Clear